sensor_id;sensor_type;location;lat;lon;timestamp;P1;durP1;ratioP1;P2;durP2;ratioP2
52564;SDS011;38460;53.106;7.004;2022-08-16T00:01:46;15.98;;;12.00;;
52564;SDS011;38460;53.106;7.004;2022-08-16T00:04:12;13.55;;;11.45;;
52564;SDS011;38460;53.106;7.004;2022-08-16T00:06:38;16.20;;;11.80;;
52564;SDS011;38460;53.106;7.004;2022-08-16T00:09:05;15.93;;;12.85;;
52564;SDS011;38460;53.106;7.004;2022-08-16T00:11:30;16.27;;;13.45;;
52564;SDS011;38460;53.106;7.004;2022-08-16T00:13:56;16.42;;;14.35;;
52564;SDS011;38460;53.106;7.004;2022-08-16T00:16:23;14.18;;;11.20;;
52564;SDS011;38460;53.106;7.004;2022-08-16T00:18:50;16.45;;;11.93;;
52564;SDS011;38460;53.106;7.004;2022-08-16T00:21:16;15.55;;;11.82;;
52564;SDS011;38460;53.106;7.004;2022-08-16T00:23:42;17.20;;;13.32;;
52564;SDS011;38460;53.106;7.004;2022-08-16T00:26:08;18.35;;;14.63;;
52564;SDS011;38460;53.106;7.004;2022-08-16T00:28:33;17.80;;;14.70;;
52564;SDS011;38460;53.106;7.004;2022-08-16T00:30:59;19.02;;;13.20;;
52564;SDS011;38460;53.106;7.004;2022-08-16T00:33:25;18.77;;;14.18;;
52564;SDS011;38460;53.106;7.004;2022-08-16T00:35:51;15.10;;;11.95;;
52564;SDS011;38460;53.106;7.004;2022-08-16T00:38:16;16.83;;;12.98;;
52564;SDS011;38460;53.106;7.004;2022-08-16T00:40:46;18.02;;;14.48;;
52564;SDS011;38460;53.106;7.004;2022-08-16T00:43:16;19.23;;;14.00;;
52564;SDS011;38460;53.106;7.004;2022-08-16T00:46:33;19.10;;;14.20;;
52564;SDS011;38460;53.106;7.004;2022-08-16T00:48:44;21.58;;;16.73;;
52564;SDS011;38460;53.106;7.004;2022-08-16T00:51:10;19.50;;;15.18;;
52564;SDS011;38460;53.106;7.004;2022-08-16T00:53:38;16.60;;;14.30;;
52564;SDS011;38460;53.106;7.004;2022-08-16T00:56:06;17.20;;;14.73;;
52564;SDS011;38460;53.106;7.004;2022-08-16T00:58:36;19.52;;;16.10;;
52564;SDS011;38460;53.106;7.004;2022-08-16T01:01:05;18.25;;;14.07;;
52564;SDS011;38460;53.106;7.004;2022-08-16T01:03:32;17.67;;;14.80;;
52564;SDS011;38460;53.106;7.004;2022-08-16T01:06:00;18.85;;;16.30;;
52564;SDS011;38460;53.106;7.004;2022-08-16T01:08:27;21.25;;;17.60;;
52564;SDS011;38460;53.106;7.004;2022-08-16T01:10:52;21.23;;;17.10;;
52564;SDS011;38460;53.106;7.004;2022-08-16T01:13:29;22.33;;;15.77;;
52564;SDS011;38460;53.106;7.004;2022-08-16T01:16:08;19.00;;;14.98;;
52564;SDS011;38460;53.106;7.004;2022-08-16T01:18:41;19.23;;;16.02;;
52564;SDS011;38460;53.106;7.004;2022-08-16T01:27:01;22.83;;;18.35;;
52564;SDS011;38460;53.106;7.004;2022-08-16T01:29:33;25.02;;;20.13;;
52564;SDS011;38460;53.106;7.004;2022-08-16T01:32:03;25.70;;;19.27;;
52564;SDS011;38460;53.106;7.004;2022-08-16T01:34:29;21.70;;;15.82;;
52564;SDS011;38460;53.106;7.004;2022-08-16T01:36:56;25.92;;;19.85;;
52564;SDS011;38460;53.106;7.004;2022-08-16T01:39:28;22.40;;;18.75;;
52564;SDS011;38460;53.106;7.004;2022-08-16T01:41:54;22.52;;;17.83;;
52564;SDS011;38460;53.106;7.004;2022-08-16T01:44:20;23.10;;;18.70;;
52564;SDS011;38460;53.106;7.004;2022-08-16T01:46:47;20.42;;;15.88;;
52564;SDS011;38460;53.106;7.004;2022-08-16T01:51:40;20.70;;;17.85;;
52564;SDS011;38460;53.106;7.004;2022-08-16T01:54:09;20.65;;;17.45;;
52564;SDS011;38460;53.106;7.004;2022-08-16T01:56:36;21.30;;;17.85;;
52564;SDS011;38460;53.106;7.004;2022-08-16T01:59:03;23.35;;;18.45;;
52564;SDS011;38460;53.106;7.004;2022-08-16T02:01:31;21.35;;;17.60;;
52564;SDS011;38460;53.106;7.004;2022-08-16T02:03:57;23.85;;;18.63;;
52564;SDS011;38460;53.106;7.004;2022-08-16T02:06:24;24.00;;;18.05;;
52564;SDS011;38460;53.106;7.004;2022-08-16T02:08:51;26.00;;;20.60;;
52564;SDS011;38460;53.106;7.004;2022-08-16T02:11:19;22.40;;;18.85;;
52564;SDS011;38460;53.106;7.004;2022-08-16T02:13:46;28.92;;;20.55;;
52564;SDS011;38460;53.106;7.004;2022-08-16T02:16:11;25.30;;;20.08;;
52564;SDS011;38460;53.106;7.004;2022-08-16T02:18:37;21.40;;;17.98;;
52564;SDS011;38460;53.106;7.004;2022-08-16T02:21:04;28.98;;;22.73;;
52564;SDS011;38460;53.106;7.004;2022-08-16T02:23:32;27.90;;;22.23;;
52564;SDS011;38460;53.106;7.004;2022-08-16T02:26:00;28.58;;;22.40;;
52564;SDS011;38460;53.106;7.004;2022-08-16T02:28:26;33.45;;;26.38;;
52564;SDS011;38460;53.106;7.004;2022-08-16T02:30:53;29.42;;;24.20;;
52564;SDS011;38460;53.106;7.004;2022-08-16T02:33:21;28.33;;;23.63;;
52564;SDS011;38460;53.106;7.004;2022-08-16T02:35:47;27.27;;;22.77;;
52564;SDS011;38460;53.106;7.004;2022-08-16T02:38:13;28.27;;;21.90;;
52564;SDS011;38460;53.106;7.004;2022-08-16T02:40:39;32.72;;;25.35;;
52564;SDS011;38460;53.106;7.004;2022-08-16T02:43:05;28.80;;;23.48;;
52564;SDS011;38460;53.106;7.004;2022-08-16T02:45:31;32.75;;;26.17;;
52564;SDS011;38460;53.106;7.004;2022-08-16T02:47:57;30.17;;;23.40;;
52564;SDS011;38460;53.106;7.004;2022-08-16T02:50:24;34.03;;;25.40;;
52564;SDS011;38460;53.106;7.004;2022-08-16T02:52:50;31.20;;;25.02;;
52564;SDS011;38460;53.106;7.004;2022-08-16T02:55:17;31.08;;;24.67;;
52564;SDS011;38460;53.106;7.004;2022-08-16T02:57:44;30.85;;;23.13;;
52564;SDS011;38460;53.106;7.004;2022-08-16T03:00:10;28.95;;;22.95;;
52564;SDS011;38460;53.106;7.004;2022-08-16T03:02:38;28.10;;;22.08;;
52564;SDS011;38460;53.106;7.004;2022-08-16T03:05:05;29.42;;;22.48;;
52564;SDS011;38460;53.106;7.004;2022-08-16T03:07:33;35.15;;;26.05;;
52564;SDS011;38460;53.106;7.004;2022-08-16T03:09:59;31.52;;;24.40;;
52564;SDS011;38460;53.106;7.004;2022-08-16T03:12:25;31.23;;;25.30;;
52564;SDS011;38460;53.106;7.004;2022-08-16T03:14:51;30.15;;;24.05;;
52564;SDS011;38460;53.106;7.004;2022-08-16T03:17:16;29.38;;;23.27;;
52564;SDS011;38460;53.106;7.004;2022-08-16T03:19:42;28.83;;;23.15;;
52564;SDS011;38460;53.106;7.004;2022-08-16T03:22:09;26.63;;;21.80;;
52564;SDS011;38460;53.106;7.004;2022-08-16T03:24:34;26.92;;;22.42;;
52564;SDS011;38460;53.106;7.004;2022-08-16T03:27:00;29.08;;;22.15;;
52564;SDS011;38460;53.106;7.004;2022-08-16T03:29:27;30.65;;;24.05;;
52564;SDS011;38460;53.106;7.004;2022-08-16T03:31:59;26.55;;;21.77;;
52564;SDS011;38460;53.106;7.004;2022-08-16T03:34:26;24.80;;;21.17;;
52564;SDS011;38460;53.106;7.004;2022-08-16T03:36:52;33.05;;;25.42;;
52564;SDS011;38460;53.106;7.004;2022-08-16T03:39:18;28.65;;;24.42;;
52564;SDS011;38460;53.106;7.004;2022-08-16T03:41:44;31.67;;;24.48;;
52564;SDS011;38460;53.106;7.004;2022-08-16T03:44:10;31.25;;;24.67;;
52564;SDS011;38460;53.106;7.004;2022-08-16T03:46:35;36.47;;;28.13;;
52564;SDS011;38460;53.106;7.004;2022-08-16T03:49:02;35.85;;;27.13;;
52564;SDS011;38460;53.106;7.004;2022-08-16T03:51:28;35.28;;;28.00;;
52564;SDS011;38460;53.106;7.004;2022-08-16T03:53:54;32.63;;;26.60;;
52564;SDS011;38460;53.106;7.004;2022-08-16T03:56:19;37.05;;;28.40;;
52564;SDS011;38460;53.106;7.004;2022-08-16T03:58:45;36.67;;;29.50;;
52564;SDS011;38460;53.106;7.004;2022-08-16T04:01:11;32.85;;;26.17;;
52564;SDS011;38460;53.106;7.004;2022-08-16T04:03:37;35.30;;;28.17;;
52564;SDS011;38460;53.106;7.004;2022-08-16T04:06:03;35.15;;;28.20;;
52564;SDS011;38460;53.106;7.004;2022-08-16T04:08:30;29.60;;;25.15;;
52564;SDS011;38460;53.106;7.004;2022-08-16T04:10:55;36.03;;;27.58;;
52564;SDS011;38460;53.106;7.004;2022-08-16T04:13:22;35.95;;;28.30;;
52564;SDS011;38460;53.106;7.004;2022-08-16T04:15:48;37.85;;;27.05;;
52564;SDS011;38460;53.106;7.004;2022-08-16T04:18:14;39.65;;;30.23;;
52564;SDS011;38460;53.106;7.004;2022-08-16T04:20:41;36.33;;;27.58;;
52564;SDS011;38460;53.106;7.004;2022-08-16T04:23:07;34.13;;;28.25;;
52564;SDS011;38460;53.106;7.004;2022-08-16T04:25:34;36.08;;;29.15;;
52564;SDS011;38460;53.106;7.004;2022-08-16T04:28:00;37.10;;;28.23;;
52564;SDS011;38460;53.106;7.004;2022-08-16T04:30:26;38.08;;;28.15;;
52564;SDS011;38460;53.106;7.004;2022-08-16T04:32:52;33.28;;;27.25;;
52564;SDS011;38460;53.106;7.004;2022-08-16T04:35:19;36.13;;;28.10;;
52564;SDS011;38460;53.106;7.004;2022-08-16T04:37:46;37.13;;;28.48;;
52564;SDS011;38460;53.106;7.004;2022-08-16T04:40:13;31.90;;;25.65;;
52564;SDS011;38460;53.106;7.004;2022-08-16T04:42:41;36.35;;;27.95;;
52564;SDS011;38460;53.106;7.004;2022-08-16T04:45:08;35.90;;;28.00;;
52564;SDS011;38460;53.106;7.004;2022-08-16T04:47:35;34.10;;;26.02;;
52564;SDS011;38460;53.106;7.004;2022-08-16T04:52:35;33.20;;;26.23;;
52564;SDS011;38460;53.106;7.004;2022-08-16T04:55:11;34.15;;;24.90;;
52564;SDS011;38460;53.106;7.004;2022-08-16T04:57:39;33.28;;;26.98;;
52564;SDS011;38460;53.106;7.004;2022-08-16T05:00:06;35.53;;;26.33;;
52564;SDS011;38460;53.106;7.004;2022-08-16T05:02:36;32.00;;;25.65;;
52564;SDS011;38460;53.106;7.004;2022-08-16T05:05:02;34.03;;;26.77;;
52564;SDS011;38460;53.106;7.004;2022-08-16T05:07:28;28.85;;;22.90;;
52564;SDS011;38460;53.106;7.004;2022-08-16T05:09:54;37.15;;;28.02;;
52564;SDS011;38460;53.106;7.004;2022-08-16T05:12:20;33.38;;;26.05;;
52564;SDS011;38460;53.106;7.004;2022-08-16T05:14:45;35.85;;;27.00;;
52564;SDS011;38460;53.106;7.004;2022-08-16T05:17:11;39.38;;;28.50;;
52564;SDS011;38460;53.106;7.004;2022-08-16T05:19:37;33.85;;;26.77;;
52564;SDS011;38460;53.106;7.004;2022-08-16T05:22:03;37.17;;;28.20;;
52564;SDS011;38460;53.106;7.004;2022-08-16T05:24:29;31.35;;;25.10;;
52564;SDS011;38460;53.106;7.004;2022-08-16T05:26:54;33.22;;;27.20;;
52564;SDS011;38460;53.106;7.004;2022-08-16T05:29:20;32.33;;;26.77;;
52564;SDS011;38460;53.106;7.004;2022-08-16T05:31:46;32.70;;;27.13;;
52564;SDS011;38460;53.106;7.004;2022-08-16T05:34:12;38.15;;;27.33;;
52564;SDS011;38460;53.106;7.004;2022-08-16T05:36:38;35.22;;;26.38;;
52564;SDS011;38460;53.106;7.004;2022-08-16T05:39:05;35.00;;;26.05;;
52564;SDS011;38460;53.106;7.004;2022-08-16T05:41:32;35.22;;;25.98;;
52564;SDS011;38460;53.106;7.004;2022-08-16T05:43:57;34.80;;;27.73;;
52564;SDS011;38460;53.106;7.004;2022-08-16T05:46:26;36.92;;;26.00;;
52564;SDS011;38460;53.106;7.004;2022-08-16T05:48:51;34.95;;;26.80;;
52564;SDS011;38460;53.106;7.004;2022-08-16T05:51:17;33.55;;;24.58;;
52564;SDS011;38460;53.106;7.004;2022-08-16T05:53:43;30.83;;;25.23;;
52564;SDS011;38460;53.106;7.004;2022-08-16T05:56:09;33.03;;;25.90;;
52564;SDS011;38460;53.106;7.004;2022-08-16T05:58:37;35.75;;;25.95;;
52564;SDS011;38460;53.106;7.004;2022-08-16T06:01:03;33.50;;;25.77;;
52564;SDS011;38460;53.106;7.004;2022-08-16T06:03:29;33.15;;;25.67;;
52564;SDS011;38460;53.106;7.004;2022-08-16T06:05:55;35.17;;;26.23;;
52564;SDS011;38460;53.106;7.004;2022-08-16T06:08:21;33.65;;;25.42;;
52564;SDS011;38460;53.106;7.004;2022-08-16T06:10:47;31.50;;;24.73;;
52564;SDS011;38460;53.106;7.004;2022-08-16T06:13:12;31.42;;;24.15;;
52564;SDS011;38460;53.106;7.004;2022-08-16T06:15:38;32.30;;;24.83;;
52564;SDS011;38460;53.106;7.004;2022-08-16T06:18:04;29.05;;;23.48;;
52564;SDS011;38460;53.106;7.004;2022-08-16T06:20:30;30.33;;;24.48;;
52564;SDS011;38460;53.106;7.004;2022-08-16T06:22:56;31.30;;;24.60;;
52564;SDS011;38460;53.106;7.004;2022-08-16T06:25:23;30.63;;;25.17;;
52564;SDS011;38460;53.106;7.004;2022-08-16T06:27:50;31.10;;;24.58;;
52564;SDS011;38460;53.106;7.004;2022-08-16T06:30:17;33.08;;;25.90;;
52564;SDS011;38460;53.106;7.004;2022-08-16T06:32:43;30.08;;;23.67;;
52564;SDS011;38460;53.106;7.004;2022-08-16T06:35:09;32.30;;;25.48;;
52564;SDS011;38460;53.106;7.004;2022-08-16T06:37:36;32.08;;;25.50;;
52564;SDS011;38460;53.106;7.004;2022-08-16T06:40:02;31.80;;;26.05;;
52564;SDS011;38460;53.106;7.004;2022-08-16T06:42:28;34.60;;;26.77;;
52564;SDS011;38460;53.106;7.004;2022-08-16T06:44:54;32.63;;;25.52;;
52564;SDS011;38460;53.106;7.004;2022-08-16T06:47:20;34.03;;;26.10;;
52564;SDS011;38460;53.106;7.004;2022-08-16T06:49:46;32.85;;;25.02;;
52564;SDS011;38460;53.106;7.004;2022-08-16T06:52:11;31.60;;;24.33;;
52564;SDS011;38460;53.106;7.004;2022-08-16T06:54:37;30.08;;;24.70;;
52564;SDS011;38460;53.106;7.004;2022-08-16T06:57:03;31.05;;;23.73;;
52564;SDS011;38460;53.106;7.004;2022-08-16T06:59:30;32.90;;;24.13;;
52564;SDS011;38460;53.106;7.004;2022-08-16T07:01:56;30.73;;;23.05;;
52564;SDS011;38460;53.106;7.004;2022-08-16T07:04:23;30.88;;;23.50;;
52564;SDS011;38460;53.106;7.004;2022-08-16T07:06:49;28.25;;;21.95;;
52564;SDS011;38460;53.106;7.004;2022-08-16T07:09:15;32.92;;;23.20;;
52564;SDS011;38460;53.106;7.004;2022-08-16T07:11:41;31.13;;;23.83;;
52564;SDS011;38460;53.106;7.004;2022-08-16T07:14:07;32.70;;;23.20;;
52564;SDS011;38460;53.106;7.004;2022-08-16T07:16:33;30.60;;;20.20;;
52564;SDS011;38460;53.106;7.004;2022-08-16T07:18:59;30.35;;;21.00;;
52564;SDS011;38460;53.106;7.004;2022-08-16T07:21:24;26.50;;;20.65;;
52564;SDS011;38460;53.106;7.004;2022-08-16T07:23:50;25.58;;;20.33;;
52564;SDS011;38460;53.106;7.004;2022-08-16T07:26:19;25.73;;;19.10;;
52564;SDS011;38460;53.106;7.004;2022-08-16T07:28:46;23.08;;;19.27;;
52564;SDS011;38460;53.106;7.004;2022-08-16T07:31:13;24.73;;;19.30;;
52564;SDS011;38460;53.106;7.004;2022-08-16T07:33:39;23.13;;;19.02;;
52564;SDS011;38460;53.106;7.004;2022-08-16T07:36:06;22.42;;;19.20;;
52564;SDS011;38460;53.106;7.004;2022-08-16T07:38:33;22.42;;;18.08;;
52564;SDS011;38460;53.106;7.004;2022-08-16T07:41:00;25.50;;;18.75;;
52564;SDS011;38460;53.106;7.004;2022-08-16T07:43:26;24.85;;;18.08;;
52564;SDS011;38460;53.106;7.004;2022-08-16T07:45:52;22.52;;;18.70;;
52564;SDS011;38460;53.106;7.004;2022-08-16T07:48:18;22.77;;;17.98;;
52564;SDS011;38460;53.106;7.004;2022-08-16T07:50:45;22.67;;;18.80;;
52564;SDS011;38460;53.106;7.004;2022-08-16T07:53:11;23.85;;;18.52;;
52564;SDS011;38460;53.106;7.004;2022-08-16T07:55:38;21.65;;;17.45;;
52564;SDS011;38460;53.106;7.004;2022-08-16T07:58:04;23.83;;;18.02;;
52564;SDS011;38460;53.106;7.004;2022-08-16T08:00:30;19.45;;;16.10;;
52564;SDS011;38460;53.106;7.004;2022-08-16T08:02:57;20.58;;;16.92;;
52564;SDS011;38460;53.106;7.004;2022-08-16T08:05:24;18.58;;;15.38;;
52564;SDS011;38460;53.106;7.004;2022-08-16T08:07:51;16.60;;;14.73;;
52564;SDS011;38460;53.106;7.004;2022-08-16T08:10:18;18.58;;;14.82;;
52564;SDS011;38460;53.106;7.004;2022-08-16T08:12:48;19.10;;;14.60;;
52564;SDS011;38460;53.106;7.004;2022-08-16T08:15:15;18.30;;;13.60;;
52564;SDS011;38460;53.106;7.004;2022-08-16T08:17:42;17.13;;;13.95;;
52564;SDS011;38460;53.106;7.004;2022-08-16T08:20:09;16.83;;;14.23;;
52564;SDS011;38460;53.106;7.004;2022-08-16T08:22:37;19.55;;;15.13;;
52564;SDS011;38460;53.106;7.004;2022-08-16T08:25:04;16.65;;;14.13;;
52564;SDS011;38460;53.106;7.004;2022-08-16T08:27:31;17.77;;;14.30;;
52564;SDS011;38460;53.106;7.004;2022-08-16T08:29:57;17.48;;;12.80;;
52564;SDS011;38460;53.106;7.004;2022-08-16T08:32:23;18.13;;;14.40;;
52564;SDS011;38460;53.106;7.004;2022-08-16T08:34:49;16.92;;;14.27;;
52564;SDS011;38460;53.106;7.004;2022-08-16T08:37:15;18.88;;;14.40;;
52564;SDS011;38460;53.106;7.004;2022-08-16T08:39:41;15.07;;;13.48;;
52564;SDS011;38460;53.106;7.004;2022-08-16T08:42:07;19.52;;;14.43;;
52564;SDS011;38460;53.106;7.004;2022-08-16T08:44:33;18.20;;;14.40;;
52564;SDS011;38460;53.106;7.004;2022-08-16T08:47:00;15.38;;;13.73;;
52564;SDS011;38460;53.106;7.004;2022-08-16T08:49:28;19.92;;;13.88;;
52564;SDS011;38460;53.106;7.004;2022-08-16T08:51:55;15.00;;;12.75;;
52564;SDS011;38460;53.106;7.004;2022-08-16T08:54:22;16.48;;;13.52;;
52564;SDS011;38460;53.106;7.004;2022-08-16T08:56:47;16.42;;;12.77;;
52564;SDS011;38460;53.106;7.004;2022-08-16T08:59:13;16.48;;;13.45;;
52564;SDS011;38460;53.106;7.004;2022-08-16T09:01:39;14.02;;;11.68;;
52564;SDS011;38460;53.106;7.004;2022-08-16T09:04:06;15.25;;;12.20;;
52564;SDS011;38460;53.106;7.004;2022-08-16T09:06:33;13.10;;;11.27;;
52564;SDS011;38460;53.106;7.004;2022-08-16T09:09:00;14.77;;;11.48;;
52564;SDS011;38460;53.106;7.004;2022-08-16T09:11:27;15.75;;;11.85;;
52564;SDS011;38460;53.106;7.004;2022-08-16T09:13:53;14.60;;;10.75;;
52564;SDS011;38460;53.106;7.004;2022-08-16T09:16:18;12.40;;;10.35;;
52564;SDS011;38460;53.106;7.004;2022-08-16T09:18:44;12.35;;;11.02;;
52564;SDS011;38460;53.106;7.004;2022-08-16T09:21:10;12.40;;;10.63;;
52564;SDS011;38460;53.106;7.004;2022-08-16T09:23:37;13.65;;;10.15;;
52564;SDS011;38460;53.106;7.004;2022-08-16T09:26:04;13.32;;;9.80;;
52564;SDS011;38460;53.106;7.004;2022-08-16T09:28:32;12.07;;;9.10;;
52564;SDS011;38460;53.106;7.004;2022-08-16T09:30:58;11.88;;;9.10;;
52564;SDS011;38460;53.106;7.004;2022-08-16T09:33:25;12.32;;;8.52;;
52564;SDS011;38460;53.106;7.004;2022-08-16T09:35:51;11.27;;;8.13;;
52564;SDS011;38460;53.106;7.004;2022-08-16T09:38:17;11.55;;;7.93;;
52564;SDS011;38460;53.106;7.004;2022-08-16T09:40:43;10.45;;;8.48;;
52564;SDS011;38460;53.106;7.004;2022-08-16T09:43:14;10.13;;;7.83;;
52564;SDS011;38460;53.106;7.004;2022-08-16T09:45:42;12.77;;;8.18;;
52564;SDS011;38460;53.106;7.004;2022-08-16T09:48:09;9.13;;;8.10;;
52564;SDS011;38460;53.106;7.004;2022-08-16T09:50:37;9.18;;;8.27;;
52564;SDS011;38460;53.106;7.004;2022-08-16T09:53:04;12.25;;;7.82;;
52564;SDS011;38460;53.106;7.004;2022-08-16T09:55:32;9.75;;;8.75;;
52564;SDS011;38460;53.106;7.004;2022-08-16T09:57:58;11.40;;;7.40;;
52564;SDS011;38460;53.106;7.004;2022-08-16T10:00:24;9.38;;;7.57;;
52564;SDS011;38460;53.106;7.004;2022-08-16T10:02:51;9.23;;;7.30;;
52564;SDS011;38460;53.106;7.004;2022-08-16T10:05:18;8.85;;;7.82;;
52564;SDS011;38460;53.106;7.004;2022-08-16T10:07:46;9.57;;;7.38;;
52564;SDS011;38460;53.106;7.004;2022-08-16T10:10:16;9.43;;;8.35;;
52564;SDS011;38460;53.106;7.004;2022-08-16T10:12:46;8.90;;;7.07;;
52564;SDS011;38460;53.106;7.004;2022-08-16T10:15:31;11.27;;;7.88;;
52564;SDS011;38460;53.106;7.004;2022-08-16T10:17:57;9.90;;;6.93;;
52564;SDS011;38460;53.106;7.004;2022-08-16T10:20:24;11.00;;;7.57;;
52564;SDS011;38460;53.106;7.004;2022-08-16T10:22:52;8.10;;;6.90;;
52564;SDS011;38460;53.106;7.004;2022-08-16T10:25:19;8.25;;;6.28;;
52564;SDS011;38460;53.106;7.004;2022-08-16T10:27:45;9.90;;;8.27;;
52564;SDS011;38460;53.106;7.004;2022-08-16T10:30:12;11.70;;;8.93;;
52564;SDS011;38460;53.106;7.004;2022-08-16T10:32:39;10.35;;;7.85;;
52564;SDS011;38460;53.106;7.004;2022-08-16T10:35:05;11.10;;;7.93;;
52564;SDS011;38460;53.106;7.004;2022-08-16T10:37:31;9.10;;;7.57;;
52564;SDS011;38460;53.106;7.004;2022-08-16T10:39:57;7.97;;;7.13;;
52564;SDS011;38460;53.106;7.004;2022-08-16T10:42:26;9.95;;;7.80;;
52564;SDS011;38460;53.106;7.004;2022-08-16T10:44:52;11.77;;;7.25;;
52564;SDS011;38460;53.106;7.004;2022-08-16T10:47:17;10.55;;;8.07;;
52564;SDS011;38460;53.106;7.004;2022-08-16T10:49:44;8.80;;;7.90;;
52564;SDS011;38460;53.106;7.004;2022-08-16T10:52:10;11.80;;;7.95;;
52564;SDS011;38460;53.106;7.004;2022-08-16T10:54:36;9.68;;;8.50;;
52564;SDS011;38460;53.106;7.004;2022-08-16T10:57:03;10.05;;;8.23;;
52564;SDS011;38460;53.106;7.004;2022-08-16T10:59:30;9.60;;;7.90;;
52564;SDS011;38460;53.106;7.004;2022-08-16T11:01:57;8.85;;;6.80;;
52564;SDS011;38460;53.106;7.004;2022-08-16T11:04:24;11.68;;;6.80;;
52564;SDS011;38460;53.106;7.004;2022-08-16T11:06:50;8.18;;;5.90;;
52564;SDS011;38460;53.106;7.004;2022-08-16T11:09:17;6.80;;;6.10;;
52564;SDS011;38460;53.106;7.004;2022-08-16T11:11:43;7.75;;;6.95;;
52564;SDS011;38460;53.106;7.004;2022-08-16T11:14:09;8.60;;;6.70;;
52564;SDS011;38460;53.106;7.004;2022-08-16T11:16:36;8.02;;;6.75;;
52564;SDS011;38460;53.106;7.004;2022-08-16T11:19:02;8.60;;;6.25;;
52564;SDS011;38460;53.106;7.004;2022-08-16T11:21:30;6.82;;;5.47;;
52564;SDS011;38460;53.106;7.004;2022-08-16T11:23:56;7.78;;;5.82;;
52564;SDS011;38460;53.106;7.004;2022-08-16T11:26:22;6.07;;;5.25;;
52564;SDS011;38460;53.106;7.004;2022-08-16T11:28:48;5.38;;;4.50;;
52564;SDS011;38460;53.106;7.004;2022-08-16T11:31:15;5.65;;;4.10;;
52564;SDS011;38460;53.106;7.004;2022-08-16T11:33:42;7.43;;;4.53;;
52564;SDS011;38460;53.106;7.004;2022-08-16T11:36:08;5.85;;;4.13;;
52564;SDS011;38460;53.106;7.004;2022-08-16T11:38:34;7.50;;;3.75;;
52564;SDS011;38460;53.106;7.004;2022-08-16T11:41:00;6.95;;;4.38;;
52564;SDS011;38460;53.106;7.004;2022-08-16T11:43:27;5.97;;;4.15;;
52564;SDS011;38460;53.106;7.004;2022-08-16T11:45:55;6.35;;;4.05;;
52564;SDS011;38460;53.106;7.004;2022-08-16T11:48:24;7.88;;;4.60;;
52564;SDS011;38460;53.106;7.004;2022-08-16T11:50:52;7.55;;;4.63;;
52564;SDS011;38460;53.106;7.004;2022-08-16T11:53:19;5.22;;;4.50;;
52564;SDS011;38460;53.106;7.004;2022-08-16T11:55:48;6.43;;;4.53;;
52564;SDS011;38460;53.106;7.004;2022-08-16T11:58:16;6.07;;;4.53;;
52564;SDS011;38460;53.106;7.004;2022-08-16T12:00:43;6.95;;;4.70;;
52564;SDS011;38460;53.106;7.004;2022-08-16T12:03:10;7.13;;;4.75;;
52564;SDS011;38460;53.106;7.004;2022-08-16T12:05:36;5.03;;;4.40;;
52564;SDS011;38460;53.106;7.004;2022-08-16T12:08:04;9.57;;;4.70;;
52564;SDS011;38460;53.106;7.004;2022-08-16T12:10:30;7.07;;;4.72;;
52564;SDS011;38460;53.106;7.004;2022-08-16T12:12:57;5.65;;;4.28;;
52564;SDS011;38460;53.106;7.004;2022-08-16T12:15:22;8.48;;;4.78;;
52564;SDS011;38460;53.106;7.004;2022-08-16T12:17:50;7.70;;;4.53;;
52564;SDS011;38460;53.106;7.004;2022-08-16T12:20:22;5.22;;;4.22;;
52564;SDS011;38460;53.106;7.004;2022-08-16T12:22:53;5.38;;;4.13;;
52564;SDS011;38460;53.106;7.004;2022-08-16T12:25:20;5.95;;;4.10;;
52564;SDS011;38460;53.106;7.004;2022-08-16T12:27:48;5.50;;;4.10;;
52564;SDS011;38460;53.106;7.004;2022-08-16T12:30:17;5.50;;;3.88;;
52564;SDS011;38460;53.106;7.004;2022-08-16T12:32:46;4.93;;;3.88;;
52564;SDS011;38460;53.106;7.004;2022-08-16T12:35:14;5.63;;;3.92;;
52564;SDS011;38460;53.106;7.004;2022-08-16T12:37:42;5.00;;;3.97;;
52564;SDS011;38460;53.106;7.004;2022-08-16T12:40:11;5.38;;;4.38;;
52564;SDS011;38460;53.106;7.004;2022-08-16T12:42:39;4.63;;;4.18;;
52564;SDS011;38460;53.106;7.004;2022-08-16T12:45:06;7.68;;;4.10;;
52564;SDS011;38460;53.106;7.004;2022-08-16T12:47:35;6.18;;;3.90;;
52564;SDS011;38460;53.106;7.004;2022-08-16T12:50:19;6.55;;;3.67;;
52564;SDS011;38460;53.106;7.004;2022-08-16T12:52:45;6.03;;;3.58;;
52564;SDS011;38460;53.106;7.004;2022-08-16T12:55:11;4.53;;;3.58;;
52564;SDS011;38460;53.106;7.004;2022-08-16T12:57:37;4.50;;;3.45;;
52564;SDS011;38460;53.106;7.004;2022-08-16T13:00:07;4.93;;;3.95;;
52564;SDS011;38460;53.106;7.004;2022-08-16T13:02:37;5.07;;;4.13;;
52564;SDS011;38460;53.106;7.004;2022-08-16T13:05:07;6.47;;;3.92;;
52564;SDS011;38460;53.106;7.004;2022-08-16T13:07:35;5.85;;;3.90;;
52564;SDS011;38460;53.106;7.004;2022-08-16T13:10:03;4.47;;;4.05;;
52564;SDS011;38460;53.106;7.004;2022-08-16T13:12:37;6.15;;;3.72;;
52564;SDS011;38460;53.106;7.004;2022-08-16T13:15:08;4.88;;;4.40;;
52564;SDS011;38460;53.106;7.004;2022-08-16T13:17:36;5.88;;;3.65;;
52564;SDS011;38460;53.106;7.004;2022-08-16T13:20:04;6.55;;;3.95;;
52564;SDS011;38460;53.106;7.004;2022-08-16T13:22:33;6.07;;;4.20;;
52564;SDS011;38460;53.106;7.004;2022-08-16T13:25:26;5.30;;;4.22;;
52564;SDS011;38460;53.106;7.004;2022-08-16T13:27:53;5.47;;;4.50;;
52564;SDS011;38460;53.106;7.004;2022-08-16T13:30:20;6.22;;;4.30;;
52564;SDS011;38460;53.106;7.004;2022-08-16T13:32:46;6.05;;;4.30;;
52564;SDS011;38460;53.106;7.004;2022-08-16T13:35:13;5.40;;;4.35;;
52564;SDS011;38460;53.106;7.004;2022-08-16T13:37:39;6.35;;;3.97;;
52564;SDS011;38460;53.106;7.004;2022-08-16T13:40:05;7.35;;;4.88;;
52564;SDS011;38460;53.106;7.004;2022-08-16T13:42:31;6.68;;;4.65;;
52564;SDS011;38460;53.106;7.004;2022-08-16T13:44:57;7.75;;;4.47;;
52564;SDS011;38460;53.106;7.004;2022-08-16T13:47:24;5.38;;;4.40;;
52564;SDS011;38460;53.106;7.004;2022-08-16T13:49:50;7.25;;;4.15;;
52564;SDS011;38460;53.106;7.004;2022-08-16T13:52:16;5.32;;;4.82;;
52564;SDS011;38460;53.106;7.004;2022-08-16T13:54:42;5.72;;;4.05;;
52564;SDS011;38460;53.106;7.004;2022-08-16T13:57:09;6.90;;;4.72;;
52564;SDS011;38460;53.106;7.004;2022-08-16T13:59:35;5.88;;;4.75;;
52564;SDS011;38460;53.106;7.004;2022-08-16T14:02:01;7.47;;;4.50;;
52564;SDS011;38460;53.106;7.004;2022-08-16T14:04:30;5.82;;;4.40;;
52564;SDS011;38460;53.106;7.004;2022-08-16T14:06:59;7.53;;;4.60;;
52564;SDS011;38460;53.106;7.004;2022-08-16T14:09:27;4.63;;;4.22;;
52564;SDS011;38460;53.106;7.004;2022-08-16T14:11:55;7.35;;;4.75;;
52564;SDS011;38460;53.106;7.004;2022-08-16T14:14:22;6.30;;;4.90;;
52564;SDS011;38460;53.106;7.004;2022-08-16T14:16:48;5.60;;;4.68;;
52564;SDS011;38460;53.106;7.004;2022-08-16T14:19:13;6.43;;;5.10;;
52564;SDS011;38460;53.106;7.004;2022-08-16T14:21:45;6.82;;;5.30;;
52564;SDS011;38460;53.106;7.004;2022-08-16T14:24:13;6.78;;;5.63;;
52564;SDS011;38460;53.106;7.004;2022-08-16T14:26:40;5.80;;;5.20;;
52564;SDS011;38460;53.106;7.004;2022-08-16T14:29:06;6.25;;;5.15;;
52564;SDS011;38460;53.106;7.004;2022-08-16T14:31:33;7.28;;;5.30;;
52564;SDS011;38460;53.106;7.004;2022-08-16T14:33:59;7.65;;;5.70;;
52564;SDS011;38460;53.106;7.004;2022-08-16T14:36:25;7.85;;;5.20;;
52564;SDS011;38460;53.106;7.004;2022-08-16T14:38:51;8.68;;;5.47;;
52564;SDS011;38460;53.106;7.004;2022-08-16T14:41:17;6.68;;;5.28;;